Time;durP1;ratioP1;P1;durP2;ratioP2;P2;SDS_P1;SDS_P2;PMS_P1;PMS_P2;Temp;Humidity;BMP_temperature;BMP_pressure;BME280_temperature;BME280_humidity;BME280_pressure;Samples;Min_cycle;Max_cycle;Signal;HPM_P1;HPM_P2
2021/10/11 00:02:11;;;;;;;15.20;7.57;;;;;;;10.18;83.23;100803.81;5134274;27;20042;-70
2021/10/11 00:04:39;;;;;;;14.23;7.15;;;;;;;10.22;82.77;100805.41;5133898;27;20043;-70
2021/10/11 00:07:08;;;;;;;10.95;6.72;;;;;;;10.12;83.39;100804.09;5134150;27;20043;-70
2021/10/11 00:09:37;;;;;;;17.60;7.43;;;;;;;10.14;83.31;100807.59;5133868;27;20035;-69
2021/10/11 00:12:06;;;;;;;17.13;7.45;;;;;;;9.97;83.77;100799.53;5134039;27;20051;-69
2021/10/11 00:14:35;;;;;;;18.05;7.47;;;;;;;10.14;83.22;100809.38;5132747;27;20049;-73
2021/10/11 00:17:03;;;;;;;14.73;7.00;;;;;;;10.15;82.15;100809.31;5134155;27;20041;-68
2021/10/11 00:19:35;;;;;;;14.50;6.68;;;;;;;10.22;81.75;100810.72;5134043;27;20445;-68
2021/10/11 00:22:04;;;;;;;12.75;6.45;;;;;;;10.12;82.18;100808.56;5134066;27;20426;-68
2021/10/11 00:24:32;;;;;;;12.73;6.40;;;;;;;10.13;82.72;100803.16;5133748;27;20146;-69
2021/10/11 00:27:01;;;;;;;13.15;6.68;;;;;;;10.15;82.55;100803.97;5133801;27;20387;-68
2021/10/11 00:29:29;;;;;;;11.27;6.05;;;;;;;10.10;83.17;100795.31;5134022;27;20388;-69
2021/10/11 00:31:57;;;;;;;16.23;6.95;;;;;;;10.09;82.91;100798.94;5133371;28;20083;-67
2021/10/11 00:34:26;;;;;;;13.57;6.43;;;;;;;10.01;83.70;100795.78;5134051;28;20050;-70
2021/10/11 00:36:55;;;;;;;15.07;6.75;;;;;;;10.04;83.89;100785.84;5133389;27;20050;-69
2021/10/11 00:39:23;;;;;;;12.57;6.65;;;;;;;10.00;83.97;100783.41;5134199;27;20047;-69
2021/10/11 00:41:51;;;;;;;14.52;7.05;;;;;;;9.96;84.79;100787.16;5133470;28;20081;-69
2021/10/11 00:44:20;;;;;;;14.43;6.90;;;;;;;10.03;83.82;100792.09;5133654;27;20035;-69
2021/10/11 00:46:48;;;;;;;12.73;6.28;;;;;;;10.05;84.41;100781.38;5133449;28;20127;-69
2021/10/11 00:49:16;;;;;;;13.35;6.47;;;;;;;9.94;85.23;100783.69;5133771;28;20039;-69
2021/10/11 00:51:45;;;;;;;12.50;6.60;;;;;;;10.02;84.15;100782.38;5133386;27;20072;-69
2021/10/11 00:54:15;;;;;;;15.18;6.80;;;;;;;10.04;83.73;100769.84;5133810;28;20571;-68
2021/10/11 00:56:45;;;;;;;14.05;6.65;;;;;;;9.88;84.94;100776.00;5133423;28;20035;-69
2021/10/11 00:59:13;;;;;;;17.13;7.15;;;;;;;9.83;84.71;100770.88;5133694;27;20487;-69
2021/10/11 01:01:41;;;;;;;15.10;7.10;;;;;;;10.01;84.80;100777.13;5133517;28;20088;-69
2021/10/11 01:04:10;;;;;;;12.52;6.90;;;;;;;10.03;83.49;100777.91;5133420;27;20062;-69
2021/10/11 01:06:40;;;;;;;15.23;6.38;;;;;;;10.01;83.74;100775.31;5133606;27;20066;-74
2021/10/11 01:09:10;;;;;;;12.68;6.38;;;;;;;10.07;83.42;100783.97;5133631;28;20047;-71
2021/10/11 01:11:40;;;;;;;14.57;7.30;;;;;;;10.05;83.51;100778.72;5133521;28;20092;-77
2021/10/11 01:14:08;;;;;;;13.13;7.22;;;;;;;10.02;84.09;100776.19;5133453;27;20043;-71
2021/10/11 01:16:37;;;;;;;13.30;7.03;;;;;;;9.99;84.20;100771.00;5133572;28;20126;-71
2021/10/11 01:19:05;;;;;;;16.27;6.72;;;;;;;9.94;85.24;100767.69;5133695;28;20039;-71
2021/10/11 01:21:34;;;;;;;16.98;7.28;;;;;;;10.12;84.69;100766.78;5133703;28;20150;-71
2021/10/11 01:24:03;;;;;;;13.23;6.80;;;;;;;10.07;85.95;100765.31;5131723;27;20096;-71
2021/10/11 01:26:38;;;;;;;14.07;6.68;;;;;;;9.98;86.78;100762.16;5133254;28;20122;-70
2021/10/11 01:29:09;;;;;;;14.30;6.85;;;;;;;10.04;87.12;100758.34;5133358;27;20061;-72
2021/10/11 01:31:37;;;;;;;13.90;6.78;;;;;;;10.05;87.43;100765.38;5133320;28;20051;-72
2021/10/11 01:34:07;;;;;;;18.38;7.22;;;;;;;9.99;88.21;100760.34;5133695;28;20043;-72
2021/10/11 01:36:37;;;;;;;13.27;6.50;;;;;;;10.01;87.77;100750.47;5135434;27;20035;-71
2021/10/11 01:39:07;;;;;;;17.00;7.60;;;;;;;9.99;87.39;100749.69;5136884;27;20050;-72
2021/10/11 01:41:36;;;;;;;13.32;7.22;;;;;;;9.91;89.10;100746.53;5136861;27;20043;-71
2021/10/11 01:44:06;;;;;;;18.60;7.15;;;;;;;10.01;87.65;100746.00;5136489;27;20093;-70
2021/10/11 01:46:35;;;;;;;15.43;7.43;;;;;;;10.02;87.93;100746.88;5136963;27;20078;-70
2021/10/11 01:49:03;;;;;;;13.80;6.93;;;;;;;9.89;88.88;100746.63;5136442;27;20067;-70
2021/10/11 01:51:32;;;;;;;15.07;7.30;;;;;;;9.77;89.72;100743.72;5136554;27;20051;-70
2021/10/11 01:54:01;;;;;;;12.63;6.28;;;;;;;9.85;89.15;100736.19;5136541;27;20075;-71
2021/10/11 01:56:30;;;;;;;14.63;7.10;;;;;;;9.75;89.56;100735.78;5136996;27;20035;-70
2021/10/11 01:58:59;;;;;;;17.10;6.60;;;;;;;9.82;89.00;100739.84;5136487;27;20047;-69
2021/10/11 02:01:27;;;;;;;13.75;6.75;;;;;;;9.82;89.12;100733.66;5136542;27;20166;-69
2021/10/11 02:03:55;;;;;;;14.18;6.97;;;;;;;9.82;89.43;100726.53;5136291;27;20417;-73
2021/10/11 02:06:25;;;;;;;15.27;6.57;;;;;;;9.91;88.55;100725.22;5136480;27;20036;-76
2021/10/11 02:08:54;;;;;;;15.43;6.85;;;;;;;9.85;88.69;100723.75;5136016;27;20126;-75
2021/10/11 02:11:23;;;;;;;16.83;7.25;;;;;;;9.71;89.67;100721.75;5136464;27;20046;-75
2021/10/11 02:13:56;;;;;;;13.93;7.15;;;;;;;9.78;89.10;100718.78;5136178;27;20047;-75
2021/10/11 02:16:25;;;;;;;12.45;6.78;;;;;;;9.71;89.54;100716.41;5136260;27;20039;-75
2021/10/11 02:18:53;;;;;;;12.98;6.28;;;;;;;9.83;88.56;100711.41;5135921;27;20047;-75
2021/10/11 02:21:21;;;;;;;15.75;6.63;;;;;;;9.82;87.97;100712.34;5135981;27;20050;-75
2021/10/11 02:23:49;;;;;;;15.93;6.82;;;;;;;9.75;88.12;100707.34;5136021;27;20045;-75
2021/10/11 02:26:17;;;;;;;11.63;6.00;;;;;;;9.79;86.88;100708.06;5134651;27;20051;-75
2021/10/11 02:28:47;;;;;;;12.18;6.38;;;;;;;9.71;88.08;100702.22;5136001;27;20049;-75
2021/10/11 02:31:15;;;;;;;16.02;7.05;;;;;;;9.88;86.40;100699.59;5135911;27;20047;-75
2021/10/11 02:33:49;;;;;;;12.65;6.97;;;;;;;9.82;87.18;100699.91;5135376;27;20043;-74
2021/10/11 02:36:17;;;;;;;12.18;6.07;;;;;;;9.79;87.31;100700.06;5136203;27;20071;-74
2021/10/11 02:38:45;;;;;;;16.60;6.85;;;;;;;9.92;86.86;100700.28;5135743;27;20046;-75
2021/10/11 02:41:14;;;;;;;14.20;6.97;;;;;;;9.88;86.18;100694.28;5135725;27;20043;-75
2021/10/11 02:43:42;;;;;;;14.27;6.70;;;;;;;9.97;85.57;100688.47;5135698;27;20047;-75
2021/10/11 02:46:12;;;;;;;14.57;6.90;;;;;;;9.95;85.32;100687.69;5135581;27;20497;-74
2021/10/11 02:48:40;;;;;;;16.13;6.55;;;;;;;9.78;86.03;100686.81;5135890;27;20142;-74
2021/10/11 02:51:08;;;;;;;14.38;6.45;;;;;;;9.84;86.04;100686.50;5135206;27;20046;-74
2021/10/11 02:53:37;;;;;;;13.02;6.28;;;;;;;10.01;84.85;100683.84;5135358;27;20039;-68
2021/10/11 02:56:05;;;;;;;16.55;6.20;;;;;;;9.88;85.77;100677.41;5135457;27;20100;-68
2021/10/11 02:58:33;;;;;;;12.68;6.68;;;;;;;9.71;86.52;100684.44;5135649;27;20142;-71
2021/10/11 03:01:01;;;;;;;10.27;5.90;;;;;;;9.76;85.68;100692.22;5135031;27;20441;-71
2021/10/11 03:03:31;;;;;;;17.85;7.07;;;;;;;9.77;85.69;100685.09;5135305;27;20046;-71
2021/10/11 03:05:59;;;;;;;13.43;6.93;;;;;;;9.86;85.17;100687.31;5135136;27;20100;-71
2021/10/11 03:08:27;;;;;;;13.15;6.40;;;;;;;9.93;85.29;100681.56;5135303;27;20040;-72
2021/10/11 03:10:57;;;;;;;15.32;6.15;;;;;;;9.97;84.99;100674.28;5134807;27;20043;-72
2021/10/11 03:13:25;;;;;;;15.75;6.57;;;;;;;9.80;85.75;100679.59;5135100;27;20039;-72
2021/10/11 03:15:54;;;;;;;13.60;6.95;;;;;;;9.86;85.69;100668.66;5134554;27;20035;-71
2021/10/11 03:18:22;;;;;;;13.20;6.43;;;;;;;9.79;86.23;100675.22;5134007;27;20055;-71
2021/10/11 03:20:51;;;;;;;12.43;6.40;;;;;;;9.97;85.43;100669.81;5134571;27;20039;-71
2021/10/11 03:23:20;;;;;;;12.60;6.20;;;;;;;10.01;85.82;100671.38;5134850;27;20043;-71
2021/10/11 03:25:48;;;;;;;11.82;6.55;;;;;;;10.04;85.26;100657.91;5134306;27;20053;-73
2021/10/11 03:28:16;;;;;;;19.38;6.72;;;;;;;9.82;86.89;100654.59;5135149;27;20126;-72
2021/10/11 03:30:44;;;;;;;17.42;7.35;;;;;;;9.97;85.80;100658.31;5134437;27;20039;-72
2021/10/11 03:33:13;;;;;;;13.63;6.80;;;;;;;10.02;85.68;100653.59;5134725;27;20047;-71
2021/10/11 03:35:41;;;;;;;15.00;6.85;;;;;;;10.02;85.37;100648.25;5134657;27;20403;-71
2021/10/11 03:38:11;;;;;;;14.23;6.93;;;;;;;9.99;85.25;100648.41;5133023;27;20084;-72
2021/10/11 03:40:39;;;;;;;14.35;6.75;;;;;;;9.95;85.66;100647.72;5134029;27;20047;-72
2021/10/11 03:43:09;;;;;;;12.93;6.10;;;;;;;9.97;85.49;100650.31;5134360;27;20043;-72
2021/10/11 03:45:38;;;;;;;13.07;6.75;;;;;;;9.73;87.21;100650.59;5134575;27;20043;-71
2021/10/11 03:48:06;;;;;;;13.95;7.00;;;;;;;9.87;86.26;100643.72;5134069;27;20039;-70
2021/10/11 03:50:35;;;;;;;14.40;6.50;;;;;;;9.73;86.95;100642.59;5134232;27;20043;-72
2021/10/11 03:53:03;;;;;;;15.23;6.45;;;;;;;9.80;86.72;100636.97;5133890;27;20438;-71
2021/10/11 03:55:33;;;;;;;13.95;6.20;;;;;;;9.82;86.78;100641.28;5134579;27;20047;-70
2021/10/11 03:58:01;;;;;;;17.67;6.53;;;;;;;9.78;87.15;100633.53;5133893;27;20058;-71
2021/10/11 04:00:30;;;;;;;11.57;6.63;;;;;;;9.71;87.94;100635.63;5134377;27;20066;-71
2021/10/11 04:03:01;;;;;;;11.25;6.60;;;;;;;9.62;88.91;100641.44;5133986;27;20096;-71
2021/10/11 04:05:30;;;;;;;13.23;6.65;;;;;;;9.82;87.56;100635.09;5134204;27;20058;-71
2021/10/11 04:08:01;;;;;;;16.23;7.20;;;;;;;9.85;87.95;100629.63;5133933;27;20453;-71
2021/10/11 04:10:30;;;;;;;11.98;6.13;;;;;;;9.91;87.45;100629.28;5134375;27;20039;-71
2021/10/11 04:13:03;;;;;;;13.32;6.45;;;;;;;9.90;87.38;100628.44;5133993;27;20386;-71
2021/10/11 04:15:31;;;;;;;16.48;7.32;;;;;;;9.73;89.03;100626.63;5134185;27;20043;-71
2021/10/11 04:17:59;;;;;;;13.25;6.68;;;;;;;9.60;89.81;100630.84;5133570;27;20484;-70
2021/10/11 04:20:28;;;;;;;14.27;7.22;;;;;;;9.73;89.75;100626.63;5134133;27;20047;-71
2021/10/11 04:22:56;;;;;;;15.20;7.07;;;;;;;9.78;89.52;100634.41;5133819;27;20400;-71
2021/10/11 04:25:24;;;;;;;14.80;6.60;;;;;;;9.77;89.47;100626.50;5133902;27;20088;-70
2021/10/11 04:27:52;;;;;;;14.55;6.82;;;;;;;9.84;89.35;100633.22;5133484;27;20050;-72
2021/10/11 04:30:22;;;;;;;14.38;7.35;;;;;;;9.80;89.72;100627.19;5132927;27;20407;-71
2021/10/11 04:32:50;;;;;;;14.18;6.80;;;;;;;9.76;90.37;100630.97;5133774;28;20047;-70
2021/10/11 04:35:21;;;;;;;11.00;6.20;;;;;;;9.63;91.00;100636.03;5133812;27;20096;-70
2021/10/11 04:37:52;;;;;;;;;;;;;;;9.69;91.04;100634.88;5133978;27;20492;-76
2021/10/11 04:40:20;;;;;;;13.73;6.40;;;;;;;9.65;90.88;100634.16;5134039;28;19919;-71
2021/10/11 04:42:48;;;;;;;12.05;7.18;;;;;;;9.62;91.10;100634.28;5133549;28;20047;-71
2021/10/11 04:45:17;;;;;;;15.30;7.28;;;;;;;9.70;90.99;100637.44;5133683;28;20043;-70
2021/10/11 04:47:46;;;;;;;14.18;7.25;;;;;;;9.65;91.26;100634.16;5133979;27;20459;-71
2021/10/11 04:50:14;;;;;;;15.50;7.90;;;;;;;9.65;91.12;100627.94;5133408;27;20035;-71
2021/10/11 04:52:42;;;;;;;13.50;7.15;;;;;;;9.59;91.71;100628.28;5133964;27;20047;-71
2021/10/11 04:55:11;;;;;;;13.98;7.40;;;;;;;9.52;92.05;100622.38;5133523;28;20457;-71
2021/10/11 04:57:39;;;;;;;16.77;7.50;;;;;;;9.64;91.88;100627.09;5133425;27;20043;-71
2021/10/11 05:00:09;;;;;;;15.38;7.30;;;;;;;9.65;92.49;100628.84;5133537;27;20039;-71
2021/10/11 05:02:37;;;;;;;18.15;7.70;;;;;;;9.66;92.79;100627.91;5133882;28;20043;-71
2021/10/11 05:05:08;;;;;;;17.05;8.15;;;;;;;9.62;93.11;100628.09;5133201;28;20044;-68
2021/10/11 05:07:36;;;;;;;16.27;7.95;;;;;;;9.59;93.09;100634.47;5133434;28;20040;-68
2021/10/11 05:10:05;;;;;;;15.00;7.57;;;;;;;9.48;94.09;100633.28;5132862;27;20095;-69
2021/10/11 05:12:34;;;;;;;15.13;7.72;;;;;;;9.53;93.39;100629.44;5137279;27;20041;-70
2021/10/11 05:15:02;;;;;;;19.75;8.50;;;;;;;9.56;93.92;100628.44;5137166;27;20035;-70
2021/10/11 05:17:30;;;;;;;13.82;7.50;;;;;;;9.74;92.94;100625.69;5137519;27;20043;-70
2021/10/11 05:20:00;;;;;;;14.98;8.68;;;;;;;9.67;93.68;100626.94;5137146;27;20400;-69
2021/10/11 05:22:33;;;;;;;15.55;7.93;;;;;;;9.72;92.33;100630.22;5137130;27;20385;-69
2021/10/11 05:25:01;;;;;;;20.33;8.18;;;;;;;9.68;93.45;100626.00;5136960;27;20039;-70
2021/10/11 05:27:29;;;;;;;15.50;7.95;;;;;;;9.59;94.07;100623.81;5136888;27;20047;-68
2021/10/11 05:29:57;;;;;;;14.75;8.05;;;;;;;9.64;94.18;100623.56;5136791;27;20047;-68
2021/10/11 05:32:25;;;;;;;19.05;8.93;;;;;;;9.67;93.13;100634.94;5136838;27;20053;-68
2021/10/11 05:34:56;;;;;;;19.65;8.90;;;;;;;9.66;94.29;100630.56;5136944;27;20051;-70
2021/10/11 05:37:24;;;;;;;18.00;9.13;;;;;;;9.66;93.78;100629.69;5136792;27;20139;-69
2021/10/11 05:39:54;;;;;;;18.55;8.55;;;;;;;9.64;93.79;100643.06;5136895;27;20078;-69
2021/10/11 05:42:23;;;;;;;18.05;9.43;;;;;;;9.77;93.34;100639.81;5137153;27;20472;-70
2021/10/11 05:44:51;;;;;;;22.73;9.63;;;;;;;9.66;94.10;100645.69;5136963;27;20095;-70
2021/10/11 05:47:20;;;;;;;22.75;9.63;;;;;;;9.84;91.95;100642.06;5136554;27;20031;-71
2021/10/11 05:49:48;;;;;;;18.80;8.85;;;;;;;9.78;92.41;100638.88;5136430;27;20122;-70
2021/10/11 05:52:17;;;;;;;18.48;8.93;;;;;;;9.81;92.09;100646.69;5135433;27;20062;-68
2021/10/11 05:54:49;;;;;;;17.83;9.35;;;;;;;9.84;92.12;100638.53;5135292;27;20134;-67
2021/10/11 05:57:19;;;;;;;21.45;9.27;;;;;;;9.88;92.90;100640.13;5136140;27;20102;-69
2021/10/11 05:59:47;;;;;;;17.70;9.25;;;;;;;9.72;94.79;100646.22;5136578;27;20047;-70
2021/10/11 06:02:15;;;;;;;17.00;8.32;;;;;;;9.69;94.12;100643.72;5136318;27;20039;-71
2021/10/11 06:04:43;;;;;;;21.65;9.32;;;;;;;9.69;94.17;100650.84;5136556;27;20051;-70
2021/10/11 06:07:11;;;;;;;23.65;9.43;;;;;;;9.70;94.49;100645.44;5136470;27;20506;-68
2021/10/11 06:09:40;;;;;;;18.95;8.82;;;;;;;9.72;94.51;100654.19;5136848;27;20058;-68
2021/10/11 06:12:09;;;;;;;18.45;9.13;;;;;;;9.80;92.94;100647.63;5135969;27;20035;-68
2021/10/11 06:14:58;;;;;;;17.30;8.88;;;;;;;9.75;94.42;100655.88;5136291;27;20039;-67
2021/10/11 06:17:27;;;;;;;18.42;9.20;;;;;;;9.83;92.61;100644.81;5136334;27;20039;-67
2021/10/11 06:19:56;;;;;;;17.40;9.35;;;;;;;9.86;93.19;100653.53;5136229;27;20041;-68
2021/10/11 06:22:24;;;;;;;15.70;8.32;;;;;;;9.95;92.18;100658.38;5135937;27;20043;-66
2021/10/11 06:24:53;;;;;;;17.70;9.00;;;;;;;9.96;90.77;100659.25;5136669;27;20076;-67
2021/10/11 06:27:21;;;;;;;16.23;8.55;;;;;;;9.98;90.39;100654.69;5136451;27;20446;-67
2021/10/11 06:29:50;;;;;;;16.60;8.30;;;;;;;10.13;89.94;100659.22;5136018;27;20047;-67
2021/10/11 06:32:20;;;;;;;15.23;8.90;;;;;;;10.19;89.95;100658.91;5135767;27;20395;-67
2021/10/11 06:34:50;;;;;;;17.08;8.77;;;;;;;10.09;91.10;100663.00;5136289;27;20047;-68
2021/10/11 06:37:19;;;;;;;15.93;8.48;;;;;;;10.22;89.63;100666.78;5135541;27;20042;-68
2021/10/11 06:39:47;;;;;;;15.70;8.27;;;;;;;10.34;89.37;100670.63;5136024;27;20044;-68
2021/10/11 06:42:15;;;;;;;13.90;8.48;;;;;;;10.32;89.57;100670.69;5136694;27;20477;-67
2021/10/11 06:44:43;;;;;;;19.10;8.88;;;;;;;10.46;89.27;100663.78;5135842;27;20054;-68
2021/10/11 06:47:11;;;;;;;14.43;8.57;;;;;;;10.52;89.03;100663.47;5135514;27;20050;-67
2021/10/11 06:49:46;;;;;;;19.08;9.50;;;;;;;10.52;89.57;100667.00;5135637;27;20036;-67
2021/10/11 06:52:14;;;;;;;16.80;8.70;;;;;;;10.56;89.82;100671.19;5135323;27;20388;-67
2021/10/11 06:54:43;;;;;;;18.90;9.45;;;;;;;10.64;89.71;100676.13;5135732;27;20066;-66
2021/10/11 06:57:13;;;;;;;19.45;9.95;;;;;;;10.80;89.87;100671.66;5135304;27;20399;-69
2021/10/11 06:59:42;;;;;;;18.45;9.57;;;;;;;10.86;89.67;100673.16;5135991;27;20046;-69
2021/10/11 07:02:10;;;;;;;21.42;9.88;;;;;;;10.91;89.74;100660.44;5135157;27;20376;-68
2021/10/11 07:04:45;;;;;;;19.40;10.23;;;;;;;10.91;90.76;100670.25;5135369;27;20047;-67
2021/10/11 07:07:13;;;;;;;17.77;8.70;;;;;;;11.09;90.41;100670.06;5135207;27;20134;-69
2021/10/11 07:09:41;;;;;;;24.38;10.02;;;;;;;11.28;90.43;100661.03;5134994;27;20495;-67
2021/10/11 07:12:09;;;;;;;19.83;9.05;;;;;;;11.21;88.72;100662.34;5134738;27;20043;-68
2021/10/11 07:14:37;;;;;;;19.50;9.75;;;;;;;11.21;89.70;100665.00;5135129;27;20046;-68
2021/10/11 07:17:06;;;;;;;18.05;9.90;;;;;;;11.35;88.08;100660.59;5134408;27;20035;-68
2021/10/11 07:19:34;;;;;;;16.27;9.57;;;;;;;11.50;85.49;100658.03;5134801;27;20051;-68
2021/10/11 07:22:04;;;;;;;16.25;9.27;;;;;;;11.52;86.24;100658.78;5134768;27;20081;-68
2021/10/11 07:24:33;;;;;;;19.77;10.52;;;;;;;11.44;89.30;100653.88;5134331;27;20445;-68
2021/10/11 07:27:01;;;;;;;15.38;8.85;;;;;;;11.70;85.11;100657.72;5134822;27;20039;-68
2021/10/11 07:29:30;;;;;;;17.00;9.25;;;;;;;11.74;84.33;100653.91;5134331;27;20049;-68
2021/10/11 07:31:58;;;;;;;16.63;9.23;;;;;;;11.75;83.20;100661.81;5134227;27;20465;-67
2021/10/11 07:34:26;;;;;;;17.20;8.95;;;;;;;11.71;83.80;100662.13;5133583;27;20070;-67
2021/10/11 07:36:54;;;;;;;17.63;9.52;;;;;;;11.62;83.96;100657.31;5134474;27;20047;-67
2021/10/11 07:39:24;;;;;;;17.83;9.43;;;;;;;11.67;85.07;100657.88;5134108;27;20047;-68
2021/10/11 07:41:53;;;;;;;17.42;9.35;;;;;;;11.65;83.72;100657.13;5134517;27;20101;-67
2021/10/11 07:44:21;;;;;;;18.60;9.48;;;;;;;11.77;83.53;100656.38;5134368;27;20051;-67
2021/10/11 07:46:53;;;;;;;20.90;10.45;;;;;;;11.80;84.78;100650.06;5134664;27;20039;-67
2021/10/11 07:49:30;;;;;;;18.08;9.13;;;;;;;11.96;82.99;100656.19;5134595;27;20442;-67
2021/10/11 07:51:59;;;;;;;20.02;10.38;;;;;;;11.87;82.95;100644.28;5134414;27;20047;-68
2021/10/11 07:54:29;;;;;;;20.33;9.98;;;;;;;11.99;83.07;100650.69;5134102;27;20104;-68
2021/10/11 07:56:58;;;;;;;18.88;9.77;;;;;;;12.10;82.06;100648.22;5134125;27;20039;-67
2021/10/11 07:59:28;;;;;;;18.83;10.15;;;;;;;12.04;82.44;100646.78;5133899;27;20051;-66
2021/10/11 08:01:57;;;;;;;19.05;9.73;;;;;;;12.23;81.03;100643.00;5134809;27;20069;-67
2021/10/11 08:04:25;;;;;;;15.90;9.95;;;;;;;12.11;81.93;100633.03;5133886;27;20039;-67
2021/10/11 08:06:53;;;;;;;20.88;9.52;;;;;;;12.24;81.10;100634.00;5134075;27;20047;-68
2021/10/11 08:09:22;;;;;;;17.25;9.95;;;;;;;12.16;80.50;100636.28;5133667;27;20043;-68
2021/10/11 08:11:51;;;;;;;20.90;10.55;;;;;;;12.36;79.62;100641.31;5133869;27;20428;-67
2021/10/11 08:14:19;;;;;;;16.25;9.88;;;;;;;12.35;80.49;100641.38;5133978;27;20096;-68
2021/10/11 08:16:48;;;;;;;15.13;9.25;;;;;;;12.36;80.82;100640.44;5134288;27;20135;-67
2021/10/11 08:19:17;;;;;;;19.80;10.60;;;;;;;12.38;81.29;100636.72;5133866;27;20038;-67
2021/10/11 08:21:45;;;;;;;16.73;9.70;;;;;;;12.45;80.27;100634.50;5134217;27;20036;-67
2021/10/11 08:24:15;;;;;;;15.32;8.90;;;;;;;12.52;79.43;100636.72;5133870;27;20035;-68
2021/10/11 08:26:43;;;;;;;16.30;8.25;;;;;;;12.70;77.88;100632.03;5133822;27;20097;-68
2021/10/11 08:29:13;;;;;;;18.05;8.52;;;;;;;12.65;77.75;100627.94;5133648;27;20039;-67
2021/10/11 08:31:42;;;;;;;17.05;8.23;;;;;;;12.67;77.75;100626.00;5134066;27;20492;-66
2021/10/11 08:34:10;;;;;;;15.02;8.10;;;;;;;12.71;76.05;100628.38;5133394;27;20043;-67
2021/10/11 08:36:38;;;;;;;18.02;8.70;;;;;;;12.65;77.19;100628.78;5134000;28;20088;-66
2021/10/11 08:39:07;;;;;;;14.80;9.23;;;;;;;12.71;76.13;100627.53;5133397;28;20503;-66
2021/10/11 08:41:35;;;;;;;15.73;8.90;;;;;;;12.67;76.59;100637.59;5133464;27;20396;-66
2021/10/11 08:44:04;;;;;;;18.33;9.18;;;;;;;12.70;77.86;100636.53;5133078;27;20121;-66
2021/10/11 08:46:33;;;;;;;16.98;9.13;;;;;;;12.68;78.35;100635.75;5137267;27;20507;-67
2021/10/11 08:49:02;;;;;;;16.10;8.70;;;;;;;12.67;77.37;100623.34;5137274;27;20035;-67
2021/10/11 08:51:30;;;;;;;19.20;9.50;;;;;;;12.82;77.37;100641.94;5137139;27;20403;-66
2021/10/11 08:53:58;;;;;;;15.38;9.05;;;;;;;12.76;78.47;100630.78;5137160;27;20072;-67
2021/10/11 08:56:26;;;;;;;18.17;9.30;;;;;;;12.86;78.37;100639.97;5136766;27;20166;-67
2021/10/11 08:58:55;;;;;;;19.60;9.45;;;;;;;12.89;78.14;100629.03;5136702;27;20032;-67
2021/10/11 09:01:23;;;;;;;17.60;9.30;;;;;;;12.91;79.65;100637.84;5136832;27;20373;-67
2021/10/11 09:03:53;;;;;;;19.20;9.20;;;;;;;13.01;81.71;100638.97;5137633;27;20074;-67
2021/10/11 09:06:22;;;;;;;18.10;9.48;;;;;;;13.14;79.15;100631.88;5137321;27;20039;-67
2021/10/11 09:08:50;;;;;;;18.10;9.73;;;;;;;13.11;80.96;100625.84;5137627;27;20085;-67
2021/10/11 09:11:21;;;;;;;17.65;9.40;;;;;;;13.15;78.05;100633.59;5137270;27;20039;-67
2021/10/11 09:13:52;;;;;;;20.45;9.63;;;;;;;13.21;78.80;100624.31;5137374;27;20042;-67
2021/10/11 09:16:29;;;;;;;16.27;9.63;;;;;;;13.26;80.74;100629.38;5170947;27;20093;-67
2021/10/11 09:19:11;;;;;;;19.15;10.23;;;;;;;13.31;78.60;100622.75;5137366;27;20069;-67
2021/10/11 09:21:40;;;;;;;18.98;9.98;;;;;;;13.45;77.85;100627.22;5137300;27;20065;-67
2021/10/11 09:24:11;;;;;;;16.70;10.00;;;;;;;13.45;79.93;100621.84;5137176;27;20082;-67
2021/10/11 09:26:45;;;;;;;17.42;9.95;;;;;;;13.57;79.90;100618.34;5137373;27;20047;-67
2021/10/11 09:29:14;;;;;;;18.48;10.25;;;;;;;13.71;79.12;100625.50;5137102;27;20076;-67
2021/10/11 09:31:48;;;;;;;18.15;10.00;;;;;;;13.77;77.44;100624.19;5137046;27;20058;-67
2021/10/11 09:34:21;;;;;;;17.67;10.18;;;;;;;13.73;80.36;100619.06;5137159;27;20074;-67
2021/10/11 09:37:00;;;;;;;18.42;10.45;;;;;;;13.89;79.89;100616.16;5136981;27;20039;-67
2021/10/11 09:39:30;;;;;;;19.55;10.63;;;;;;;13.86;80.37;100616.41;5136999;27;20046;-67
2021/10/11 09:41:59;;;;;;;17.67;9.52;;;;;;;13.96;77.51;100620.16;5136950;27;20043;-67
2021/10/11 09:44:28;;;;;;;19.02;11.00;;;;;;;13.93;79.22;100617.69;5136795;27;20071;-67
2021/10/11 09:47:00;;;;;;;19.45;10.38;;;;;;;13.89;79.39;100618.00;5136749;27;20054;-67
2021/10/11 09:49:30;;;;;;;19.37;11.80;;;;;;;13.89;80.03;100618.00;5136467;27;20533;-67
2021/10/11 09:51:58;;;;;;;19.35;10.82;;;;;;;13.83;80.33;100613.06;5137010;27;20134;-67
2021/10/11 09:54:27;;;;;;;22.85;11.68;;;;;;;13.74;81.89;100615.41;5136450;27;20050;-68
2021/10/11 09:56:59;;;;;;;19.00;10.90;;;;;;;13.77;80.26;100613.47;5135972;27;20039;-66
2021/10/11 09:59:29;;;;;;;21.98;11.48;;;;;;;13.80;79.60;100611.47;5136242;27;20099;-68
2021/10/11 10:01:58;;;;;;;20.35;11.00;;;;;;;13.86;78.83;100610.16;5136658;27;20047;-68
2021/10/11 10:04:33;;;;;;;25.42;11.65;;;;;;;13.78;80.02;100601.78;5136342;27;20051;-69
2021/10/11 10:07:05;;;;;;;23.40;11.50;;;;;;;13.67;81.55;100603.38;5136640;27;20145;-67
2021/10/11 10:09:35;;;;;;;20.88;11.38;;;;;;;13.72;82.01;100601.25;5136113;27;20046;-67
2021/10/11 10:12:05;;;;;;;21.73;11.45;;;;;;;13.83;80.84;100595.16;5135934;27;20035;-68
2021/10/11 10:14:35;;;;;;;23.23;11.48;;;;;;;13.73;82.97;100586.88;5136028;27;20043;-67
2021/10/11 10:17:04;;;;;;;19.35;11.18;;;;;;;13.79;82.81;100585.59;5136393;27;20043;-67
2021/10/11 10:19:37;;;;;;;24.92;12.48;;;;;;;13.85;82.69;100589.69;5135189;27;20066;-67
2021/10/11 10:22:15;;;;;;;20.08;11.50;;;;;;;13.66;82.38;100580.22;5135536;27;20043;-68
2021/10/11 10:24:43;;;;;;;20.55;11.82;;;;;;;13.53;82.56;100579.34;5135400;27;20043;-67
2021/10/11 10:27:14;;;;;;;17.45;10.77;;;;;;;13.48;83.49;100580.59;5135492;27;20047;-67
2021/10/11 10:29:44;;;;;;;23.17;11.30;;;;;;;13.64;81.88;100578.59;5135597;27;20040;-67
2021/10/11 10:32:15;;;;;;;22.80;12.88;;;;;;;13.57;82.34;100580.84;5135342;27;20492;-67
2021/10/11 10:34:47;;;;;;;20.70;12.10;;;;;;;13.50;82.15;100571.47;5134046;27;20134;-67
2021/10/11 10:37:15;;;;;;;23.08;12.60;;;;;;;13.38;82.30;100575.84;5135156;27;20043;-67
2021/10/11 10:39:48;;;;;;;21.77;12.55;;;;;;;13.47;82.25;100563.66;5135590;27;20043;-67
2021/10/11 10:42:24;;;;;;;21.47;12.13;;;;;;;13.60;82.38;100563.69;5135704;27;20031;-67
2021/10/11 10:44:52;;;;;;;19.45;11.00;;;;;;;13.62;81.18;100562.63;5134982;27;20092;-67
2021/10/11 10:47:32;;;;;;;24.10;12.93;;;;;;;13.46;82.80;100559.25;5134877;27;20066;-68
2021/10/11 10:50:05;;;;;;;19.95;12.10;;;;;;;13.50;81.62;100558.09;5135508;27;20072;-67
2021/10/11 10:52:35;;;;;;;21.40;12.05;;;;;;;13.35;82.59;100553.78;5135020;27;20057;-67
2021/10/11 10:55:03;;;;;;;20.15;12.48;;;;;;;13.33;82.32;100555.69;5135623;27;20051;-67
2021/10/11 10:57:32;;;;;;;22.50;11.98;;;;;;;13.27;82.54;100546.25;5135191;27;20039;-66
2021/10/11 11:00:13;;;;;;;22.73;13.65;;;;;;;13.08;83.19;100541.22;5135233;27;20126;-68
2021/10/11 11:02:45;;;;;;;19.48;12.45;;;;;;;13.28;83.46;100541.75;5135413;27;20537;-66
2021/10/11 11:05:16;;;;;;;20.42;12.35;;;;;;;13.24;82.13;100534.88;5135509;27;20043;-68
2021/10/11 11:07:47;;;;;;;23.80;13.52;;;;;;;13.17;82.83;100537.94;5134644;27;20092;-68
2021/10/11 11:10:17;;;;;;;25.13;13.60;;;;;;;13.23;83.41;100531.34;5134661;27;20047;-68
2021/10/11 11:12:51;;;;;;;24.60;13.75;;;;;;;13.21;83.69;100530.56;5135476;27;20043;-68
2021/10/11 11:15:25;;;;;;;21.00;13.20;;;;;;;13.22;83.95;100516.25;5135282;27;20074;-68
2021/10/11 11:17:55;;;;;;;25.00;14.82;;;;;;;13.01;85.96;100520.28;5135206;27;20377;-68
2021/10/11 11:20:26;;;;;;;25.60;15.68;;;;;;;13.11;85.12;100524.94;5134984;27;20039;-68
2021/10/11 11:22:56;;;;;;;27.27;14.80;;;;;;;12.99;85.32;100524.88;5134901;27;20478;-68
2021/10/11 11:25:33;;;;;;;30.55;16.48;;;;;;;13.05;86.37;100524.50;5135008;27;20043;-68
2021/10/11 11:28:04;;;;;;;24.92;14.57;;;;;;;13.14;84.88;100514.03;5134992;27;20492;-68
2021/10/11 11:30:33;;;;;;;27.60;14.23;;;;;;;13.13;84.58;100523.03;5134425;27;20035;-67